createdAt,value
2018-06-20T00:05:07.601Z,99.90
2018-06-20T00:07:36.109Z,99.90
2018-06-20T00:12:32.702Z,99.90
2018-06-20T00:17:29.118Z,99.90
2018-06-20T00:19:57.932Z,99.90
2018-06-20T00:22:26.291Z,99.90
2018-06-20T00:24:54.803Z,99.90
2018-06-20T00:34:47.166Z,99.90
2018-06-20T00:42:12.150Z,99.90
2018-06-20T00:44:40.683Z,99.90
2018-06-20T00:47:08.861Z,99.90
2018-06-20T00:49:37.343Z,99.90
2018-06-20T00:52:05.881Z,99.90
2018-06-20T00:54:34.257Z,99.90
2018-06-20T00:57:02.647Z,99.90
2018-06-20T00:59:31.457Z,99.90
2018-06-20T01:01:59.965Z,99.90
2018-06-20T01:04:28.247Z,99.90
2018-06-20T01:06:56.569Z,99.90
2018-06-20T01:11:53.295Z,99.90
2018-06-20T01:14:21.564Z,99.90
2018-06-20T01:19:17.974Z,99.90
2018-06-20T01:21:46.232Z,99.90
2018-06-20T01:24:14.651Z,99.90
2018-06-20T01:29:11.145Z,99.90
2018-06-20T01:31:39.443Z,99.90
2018-06-20T01:34:07.732Z,99.90
2018-06-20T01:36:35.884Z,99.90
2018-06-20T01:39:06.293Z,99.90
2018-06-20T01:41:34.693Z,99.90
2018-06-20T01:44:03.393Z,99.90
2018-06-20T01:48:59.790Z,99.90
2018-06-20T01:51:28.174Z,99.90
2018-06-20T01:56:24.573Z,99.90
2018-06-20T01:58:53.149Z,99.90
2018-06-20T02:01:21.685Z,99.90
2018-06-20T02:03:49.980Z,99.90
2018-06-20T02:06:18.155Z,99.90
2018-06-20T02:08:46.477Z,99.90
2018-06-20T02:11:14.560Z,99.90
2018-06-20T02:16:10.725Z,99.90
2018-06-20T02:18:38.736Z,99.90
2018-06-20T02:23:34.909Z,99.90
2018-06-20T02:26:03.413Z,99.90
2018-06-20T02:28:31.705Z,99.90
2018-06-20T02:31:00.218Z,99.90
2018-06-20T02:38:29.305Z,99.90
2018-06-20T02:45:53.593Z,99.90
2018-06-20T02:48:21.689Z,99.90
2018-06-20T02:50:49.955Z,99.90
2018-06-20T02:53:18.269Z,99.90
2018-06-20T02:55:47.194Z,99.90
2018-06-20T02:58:15.591Z,99.90
2018-06-20T03:00:43.872Z,99.90
2018-06-20T03:05:40.169Z,99.90
2018-06-20T03:08:08.450Z,99.90
2018-06-20T03:10:36.741Z,99.90
2018-06-20T03:13:05.171Z,99.90
2018-06-20T03:15:33.547Z,99.90
2018-06-20T03:20:30.570Z,99.90
2018-06-20T03:22:58.935Z,99.90
2018-06-20T03:25:27.152Z,99.90
2018-06-20T03:27:55.901Z,99.90
2018-06-20T03:30:24.221Z,99.90
2018-06-20T03:32:52.568Z,99.90
2018-06-20T03:35:20.968Z,99.90
2018-06-20T03:37:49.267Z,99.90
2018-06-20T03:40:17.563Z,99.90
2018-06-20T03:45:13.870Z,99.90
2018-06-20T03:47:42.151Z,99.90
2018-06-20T03:50:10.757Z,99.90
2018-06-20T03:52:39.235Z,99.90
2018-06-20T04:00:04.144Z,99.90
2018-06-20T04:05:00.119Z,99.90
2018-06-20T04:12:24.607Z,99.90
2018-06-20T04:17:21.790Z,99.90
2018-06-20T04:19:50.784Z,99.90
2018-06-20T04:22:19.118Z,99.90
2018-06-20T04:27:15.511Z,99.90
2018-06-20T04:32:11.895Z,96.20
2018-06-20T04:37:09.301Z,91.60
2018-06-20T04:42:05.690Z,85.10
2018-06-20T04:49:29.873Z,74.20
2018-06-20T04:54:26.160Z,77.60
2018-06-20T04:56:54.680Z,79.00
2018-06-20T04:59:22.958Z,80.60
2018-06-20T05:01:51.376Z,82.50
2018-06-20T05:04:20.779Z,84.50
2018-06-20T05:06:49.075Z,82.40
2018-06-20T05:11:47.821Z,77.90
2018-06-20T05:16:44.743Z,79.60
2018-06-20T05:19:13.743Z,77.30
2018-06-20T05:21:42.778Z,71.60
2018-06-20T05:24:11.044Z,66.50
2018-06-20T05:26:39.671Z,64.60
2018-06-20T05:29:08.157Z,64.40
2018-06-20T05:34:04.857Z,67.10
2018-06-20T05:39:01.857Z,69.20
2018-06-20T05:46:26.876Z,72.00
2018-06-20T05:48:55.349Z,69.60
2018-06-20T05:53:51.512Z,61.40
2018-06-20T05:56:19.735Z,58.00
2018-06-20T06:01:16.336Z,52.00
2018-06-20T06:03:44.635Z,49.70
2018-06-20T06:13:39.556Z,44.90
2018-06-20T06:18:36.477Z,48.70
2018-06-20T06:21:05.367Z,50.50
2018-06-20T06:26:01.770Z,52.60
2018-06-20T06:35:54.447Z,54.80
2018-06-20T06:38:22.941Z,55.60
2018-06-20T06:43:19.433Z,56.70
2018-06-20T06:45:48.232Z,54.70
2018-06-20T06:48:17.470Z,50.60
2018-06-20T06:50:45.833Z,47.60
2018-06-20T06:53:14.132Z,45.70
2018-06-20T06:55:42.563Z,43.60
2018-06-20T07:08:03.758Z,36.00
2018-06-20T07:10:32.170Z,34.90
2018-06-20T07:13:01.095Z,33.90
2018-06-20T07:15:29.561Z,33.20
2018-06-20T07:17:57.926Z,32.70
2018-06-20T07:20:26.055Z,32.30
2018-06-20T07:32:46.740Z,36.70
2018-06-20T07:35:15.003Z,38.70
2018-06-20T07:37:43.399Z,39.10
2018-06-20T07:40:11.826Z,38.10
2018-06-20T07:42:40.093Z,37.20
2018-06-20T07:47:36.523Z,34.30
2018-06-20T07:50:04.735Z,32.80
2018-06-20T07:52:33.093Z,31.90
2018-06-20T07:57:29.924Z,31.20
2018-06-20T08:00:03.643Z,31.30
2018-06-20T08:02:48.592Z,31.00
2018-06-20T08:05:22.158Z,31.00
2018-06-20T08:07:55.817Z,30.80
2018-06-20T08:11:32.294Z,30.20
2018-06-20T08:14:05.945Z,30.70
2018-06-20T08:16:39.819Z,31.60
2018-06-20T08:19:13.521Z,31.60
2018-06-20T08:21:41.874Z,31.90
2018-06-20T08:31:34.197Z,37.40
2018-06-20T08:34:03.064Z,38.40
2018-06-20T08:36:31.338Z,39.50
2018-06-20T08:38:59.684Z,40.80
2018-06-20T08:41:27.937Z,41.60
2018-06-20T08:43:56.134Z,42.20
2018-06-20T08:48:52.867Z,44.30
2018-06-20T08:51:21.226Z,44.60
2018-06-20T08:53:49.519Z,44.90
2018-06-20T08:56:17.847Z,45.70
2018-06-20T08:58:46.332Z,46.50
2018-06-20T09:01:14.539Z,47.00
2018-06-20T09:03:43.579Z,46.90
2018-06-20T09:06:17.209Z,47.70
2018-06-20T09:08:51.181Z,48.40
2018-06-20T09:11:24.860Z,47.80
2018-06-20T09:13:58.766Z,48.30
2018-06-20T09:16:32.379Z,48.90
2018-06-20T09:19:06.070Z,48.50
2018-06-20T09:24:02.444Z,49.00
2018-06-20T09:33:55.049Z,49.60
2018-06-20T09:36:23.429Z,49.50
2018-06-20T09:38:51.812Z,50.40
2018-06-20T09:46:15.886Z,51.40
2018-06-20T09:48:45.029Z,52.40
2018-06-20T09:51:13.402Z,53.10
2018-06-20T09:53:42.305Z,54.30
2018-06-20T09:56:10.839Z,53.40
2018-06-20T09:58:39.108Z,53.80
2018-06-20T10:01:12.906Z,53.30
2018-06-20T10:03:46.911Z,52.40
2018-06-20T10:06:20.572Z,51.90
2018-06-20T10:09:54.090Z,51.40
2018-06-20T10:13:29.796Z,50.80
2018-06-20T10:15:58.201Z,50.60
2018-06-20T10:18:27.286Z,50.40
2018-06-20T10:20:55.645Z,50.80
2018-06-20T10:23:24.566Z,50.70
2018-06-20T10:25:53.053Z,51.40
2018-06-20T10:28:21.420Z,50.90
2018-06-20T10:30:49.772Z,50.00
2018-06-20T10:33:19.155Z,51.30
2018-06-20T10:35:47.566Z,51.00
2018-06-20T10:40:43.961Z,52.00
2018-06-20T10:45:45.694Z,49.60
2018-06-20T10:48:15.344Z,48.30
2018-06-20T10:50:43.622Z,47.90
2018-06-20T10:53:12.003Z,48.80
2018-06-20T10:55:41.342Z,50.30
2018-06-20T10:58:15.186Z,51.30
2018-06-20T11:00:48.922Z,51.20
2018-06-20T11:03:22.777Z,50.50
2018-06-20T11:08:31.248Z,50.00
2018-06-20T11:11:05.006Z,49.80
2018-06-20T11:13:33.667Z,49.30
2018-06-20T11:16:02.173Z,49.20
2018-06-20T11:18:31.409Z,49.90
2018-06-20T11:21:00.023Z,50.10
2018-06-20T11:23:28.492Z,51.00
2018-06-20T11:25:56.803Z,51.80
2018-06-20T11:28:25.161Z,52.60
2018-06-20T11:30:53.344Z,52.30
2018-06-20T11:33:22.068Z,51.70
2018-06-20T11:38:19.087Z,50.50
2018-06-20T11:43:15.483Z,50.40
2018-06-20T11:45:49.388Z,49.70
2018-06-20T11:50:46.708Z,49.00
2018-06-20T11:53:14.888Z,49.70
2018-06-20T11:55:44.405Z,49.40
2018-06-20T11:58:18.020Z,49.30
2018-06-20T12:00:52.029Z,48.10
2018-06-20T12:03:25.779Z,48.20
2018-06-20T12:08:33.824Z,48.10
2018-06-20T12:11:07.826Z,49.10
2018-06-20T12:13:41.512Z,49.90
2018-06-20T12:16:15.127Z,50.20
2018-06-20T12:18:49.298Z,51.10
2018-06-20T12:21:23.072Z,50.30
2018-06-20T12:23:57.007Z,51.70
2018-06-20T12:26:30.624Z,51.30
2018-06-20T12:29:04.321Z,50.70
2018-06-20T12:31:37.960Z,50.70
2018-06-20T12:34:11.671Z,49.70
2018-06-20T12:36:45.444Z,49.50
2018-06-20T12:39:13.720Z,49.50
2018-06-20T12:41:47.426Z,49.00
2018-06-20T12:44:21.034Z,48.40
2018-06-20T12:47:08.138Z,47.40
2018-06-20T12:49:39.011Z,48.70
2018-06-20T12:52:07.367Z,49.10
2018-06-20T12:54:36.365Z,48.90
2018-06-20T12:57:05.627Z,48.70
2018-06-20T12:59:33.880Z,49.60
2018-06-20T13:02:02.275Z,49.80
2018-06-20T13:06:58.929Z,48.80
2018-06-20T13:09:27.785Z,48.40
2018-06-20T13:14:24.693Z,47.40
2018-06-20T13:16:53.096Z,47.00
2018-06-20T13:19:21.597Z,47.70
2018-06-20T13:21:49.991Z,47.40
2018-06-20T13:24:18.179Z,46.90
2018-06-20T13:29:20.306Z,46.70
2018-06-20T13:31:54.016Z,47.60
2018-06-20T13:37:01.086Z,48.00
2018-06-20T13:39:34.731Z,48.10
2018-06-20T13:42:06.880Z,47.70
2018-06-20T13:44:35.106Z,47.40
2018-06-20T13:48:06.756Z,47.80
2018-06-20T13:50:35.255Z,47.50
2018-06-20T13:53:03.633Z,48.10
2018-06-20T13:55:31.820Z,47.70
2018-06-20T13:58:00.138Z,48.10
2018-06-20T14:02:56.725Z,46.50
2018-06-20T14:05:25.047Z,46.80
2018-06-20T14:07:53.352Z,45.90
2018-06-20T14:10:21.623Z,45.60
2018-06-20T14:12:49.919Z,45.90
2018-06-20T14:17:46.312Z,45.70
2018-06-20T14:20:20.068Z,45.20
2018-06-20T14:22:48.454Z,44.90
2018-06-20T14:25:17.351Z,45.30
2018-06-20T14:27:45.627Z,46.20
2018-06-20T14:32:51.993Z,47.70
2018-06-20T14:35:25.987Z,47.90
2018-06-20T14:37:59.808Z,48.40
2018-06-20T14:41:32.532Z,48.40
2018-06-20T14:44:04.019Z,48.20
2018-06-20T14:46:32.436Z,48.40
2018-06-20T14:49:01.301Z,48.70
2018-06-20T14:51:30.303Z,49.00
2018-06-20T14:53:58.721Z,48.90
2018-06-20T14:56:27.225Z,48.70
2018-06-20T14:58:55.600Z,49.70
2018-06-20T15:01:24.752Z,49.40
2018-06-20T15:03:53.454Z,49.70
2018-06-20T15:06:22.052Z,49.30
2018-06-20T15:08:50.817Z,49.40
2018-06-20T15:11:19.335Z,50.00
2018-06-20T15:13:47.651Z,48.80
2018-06-20T15:16:21.367Z,48.80
2018-06-20T15:21:17.762Z,49.50
2018-06-20T15:26:19.346Z,50.10
2018-06-20T15:28:52.967Z,49.80
2018-06-20T15:31:26.570Z,49.80
2018-06-20T15:34:00.461Z,50.50
2018-06-20T15:36:34.125Z,51.20
2018-06-20T15:41:30.982Z,50.70
2018-06-20T15:43:59.534Z,50.80
2018-06-20T15:48:55.610Z,50.90
2018-06-20T15:51:23.826Z,50.50
2018-06-20T15:53:52.222Z,50.60
2018-06-20T15:56:20.623Z,51.10
2018-06-20T15:58:49.630Z,51.60
2018-06-20T16:01:18.037Z,52.10
2018-06-20T16:03:46.441Z,52.10
2018-06-20T16:06:14.727Z,53.20
2018-06-20T16:08:48.270Z,53.50
2018-06-20T16:11:16.618Z,53.40
2018-06-20T16:13:45.127Z,53.80
2018-06-20T16:21:20.059Z,53.80
2018-06-20T16:26:27.481Z,53.90
2018-06-20T16:31:29.475Z,53.70
2018-06-20T16:33:58.019Z,54.10
2018-06-20T16:36:26.344Z,54.10
2018-06-20T16:38:54.475Z,54.10
2018-06-20T16:41:23.109Z,54.30
2018-06-20T16:43:51.558Z,54.70
2018-06-20T16:46:19.805Z,55.10
2018-06-20T16:51:16.262Z,55.30
2018-06-20T16:53:45.209Z,55.20
2018-06-20T16:56:13.768Z,55.20
2018-06-20T16:58:42.219Z,55.30
2018-06-20T17:01:16.031Z,55.70
2018-06-20T17:06:12.831Z,56.60
2018-06-20T17:08:41.117Z,56.50
2018-06-20T17:13:42.899Z,56.90
2018-06-20T17:16:16.738Z,57.40
2018-06-20T17:18:50.344Z,57.50
2018-06-20T17:21:24.827Z,57.20
2018-06-20T17:23:58.407Z,57.20
2018-06-20T17:26:26.839Z,57.00
2018-06-20T17:28:55.148Z,57.20
2018-06-20T17:31:23.448Z,57.10
2018-06-20T17:33:51.838Z,56.40
2018-06-20T17:36:20.080Z,55.90
2018-06-20T17:38:48.954Z,56.10
2018-06-20T17:41:17.979Z,56.30
2018-06-20T17:43:46.334Z,56.50
2018-06-20T17:46:15.122Z,56.60
2018-06-20T17:48:43.643Z,56.40
2018-06-20T17:53:40.142Z,56.70
2018-06-20T17:56:08.729Z,56.80
2018-06-20T17:58:37.028Z,57.10
2018-06-20T18:03:38.475Z,57.50
2018-06-20T18:06:12.283Z,57.90
2018-06-20T18:08:46.802Z,58.20
2018-06-20T18:11:16.992Z,58.70
2018-06-20T18:13:50.740Z,59.20
2018-06-20T18:16:24.527Z,59.60
2018-06-20T18:18:53.057Z,60.60
2018-06-20T18:21:21.584Z,60.30
2018-06-20T18:23:49.887Z,61.10
2018-06-20T18:26:18.260Z,61.30
2018-06-20T18:28:46.696Z,61.90
2018-06-20T18:31:14.879Z,61.80
2018-06-20T18:33:43.307Z,62.10
2018-06-20T18:36:11.657Z,62.70
2018-06-20T18:38:39.947Z,62.60
2018-06-20T18:43:37.299Z,63.90
2018-06-20T18:46:05.916Z,64.50
2018-06-20T18:48:34.509Z,65.10
2018-06-20T18:51:03.982Z,66.80
2018-06-20T18:53:32.390Z,67.60
2018-06-20T18:56:00.744Z,67.70
2018-06-20T18:58:34.410Z,68.00
2018-06-20T19:01:08.328Z,68.10
2018-06-20T19:03:42.796Z,69.60
2018-06-20T19:06:16.570Z,69.30
2018-06-20T19:08:59.404Z,70.70
2018-06-20T19:11:27.622Z,71.50
2018-06-20T19:13:57.441Z,71.60
2018-06-20T19:18:54.697Z,72.30
2018-06-20T19:21:23.990Z,73.10
2018-06-20T19:23:52.262Z,73.30
2018-06-20T19:26:20.665Z,74.30
2018-06-20T19:31:17.177Z,75.20
2018-06-20T19:33:46.207Z,75.70
2018-06-20T19:36:14.699Z,76.90
2018-06-20T19:38:43.074Z,77.50
2018-06-20T19:41:11.490Z,76.60
2018-06-20T19:43:45.565Z,77.50
2018-06-20T19:46:14.524Z,78.40
2018-06-20T19:48:43.027Z,79.70
2018-06-20T19:51:11.778Z,80.50
2018-06-20T19:53:40.356Z,81.10
2018-06-20T19:56:08.611Z,81.50
2018-06-20T19:58:37.322Z,81.90
2018-06-20T20:01:06.239Z,82.90
2018-06-20T20:06:04.367Z,83.60
2018-06-20T20:08:33.114Z,84.20
2018-06-20T20:11:01.179Z,85.00
2018-06-20T20:13:29.461Z,85.50
2018-06-20T20:18:25.868Z,86.20
2018-06-20T20:23:24.083Z,87.40
2018-06-20T20:28:20.806Z,88.00
2018-06-20T20:30:49.079Z,88.30
2018-06-20T20:33:17.603Z,88.70
2018-06-20T20:35:46.010Z,89.10
2018-06-20T20:38:14.407Z,89.40
2018-06-20T20:40:42.996Z,90.00
2018-06-20T20:43:11.594Z,90.30
2018-06-20T20:50:39.051Z,90.60
2018-06-20T20:53:07.499Z,90.80
2018-06-20T20:55:36.069Z,90.90
2018-06-20T20:58:04.534Z,91.00
2018-06-20T21:00:32.860Z,91.10
2018-06-20T21:03:01.279Z,91.50
2018-06-20T21:05:29.652Z,91.50
2018-06-20T21:07:57.842Z,91.60
2018-06-20T21:15:22.739Z,92.00
2018-06-20T21:17:51.227Z,92.10
2018-06-20T21:25:16.416Z,92.30
2018-06-20T21:27:44.993Z,92.40
2018-06-20T21:30:13.447Z,92.50
2018-06-20T21:32:41.845Z,92.60
2018-06-20T21:37:38.732Z,92.20
2018-06-20T21:40:11.005Z,91.60
2018-06-20T21:42:39.925Z,91.30
2018-06-20T21:50:05.181Z,91.30
2018-06-20T21:52:33.401Z,90.90
2018-06-20T21:55:02.359Z,90.80
2018-06-20T21:57:30.773Z,90.60
2018-06-20T21:59:59.126Z,90.40
2018-06-20T22:02:27.447Z,90.20
2018-06-20T22:04:55.827Z,90.00
2018-06-20T22:07:24.044Z,89.90
2018-06-20T22:09:52.532Z,90.00
2018-06-20T22:12:20.809Z,90.00
2018-06-20T22:14:49.182Z,90.00
2018-06-20T22:17:18.123Z,90.20
2018-06-20T22:19:46.420Z,90.20
2018-06-20T22:22:14.750Z,90.20
2018-06-20T22:29:39.214Z,90.30
2018-06-20T22:34:35.526Z,90.40
2018-06-20T22:37:03.900Z,90.30
2018-06-20T22:42:00.823Z,90.50
2018-06-20T22:44:29.293Z,90.60
2018-06-20T22:46:58.241Z,90.60
2018-06-20T22:49:26.524Z,90.70
2018-06-20T22:54:24.458Z,90.60
2018-06-20T22:56:52.824Z,90.60
2018-06-20T22:59:21.870Z,90.40
2018-06-20T23:01:50.248Z,90.50
2018-06-20T23:06:46.747Z,90.90
2018-06-20T23:09:15.057Z,91.20
2018-06-20T23:11:46.584Z,91.40
2018-06-20T23:14:15.005Z,91.60
2018-06-20T23:16:44.020Z,91.60
2018-06-20T23:19:12.452Z,91.50
2018-06-20T23:21:42.590Z,91.90
2018-06-20T23:24:10.679Z,92.00
2018-06-20T23:26:39.380Z,92.10
2018-06-20T23:29:07.559Z,92.40
2018-06-20T23:34:03.828Z,92.70
2018-06-20T23:36:32.796Z,92.90
2018-06-20T23:39:01.164Z,93.10
2018-06-20T23:46:25.656Z,94.10
2018-06-20T23:48:53.944Z,93.90
2018-06-20T23:53:50.427Z,94.00
2018-06-20T23:58:46.936Z,94.20
